Goodwin, Arkansas
Current Conditions -  °F | °C
As of 5:15 AM on Monday 22 Dec 2014 (Local Time) from KSGT Reporting Station
Overcast Overcast  
Wind Chill: 43°   Ceiling: 400
Heat Index: 48°   Visibility: NA
Dew Point: 46°   Wind: 14mph
Humidity: 93%   Direction: 160°SSE
Pressure: 29.8"   Gusts: NA
Location:  34.94°N, 91.02°W
Report Text: KSGT 221115Z 16012KT OVC004 09/08 A2980 RMK AO1
Loading
Personal Weather Stations






























Interactive Weather Map New forecast layout! Learn more

10-Day Weather Forecast

Advertisements
Track Severe Weather on mobile